This is the latest recevied weather packets stored in our database for station/object N4CRH-13. If no packets are shown the sender has not sent any weather packets the latest 10 day(s).
| Time | Temp. | Humidity | Pressure | Rain* | Wind** | Luminosity | Snow |
|---|---|---|---|---|---|---|---|
| 1778000030 | 0.56° C | 99% | 1291.3 hPa | 0 mm | - | 103 W/m² | - |
| 1777999726 | 0.56° C | 99% | 1291.3 hPa | 0 mm | - | 81 W/m² | - |
| 1777999423 | 0.56° C | 99% | 1291.2 hPa | 0 mm | - | 63 W/m² | - |
| 1777999121 | 0.56° C | 99% | 1291.3 hPa | 0 mm | - | 69 W/m² | - |
| 1777998820 | 0.56° C | 99% | 1291.4 hPa | 0 mm | - | 69 W/m² | - |
| 1777998518 | 0.56° C | 99% | 1291.7 hPa | 0 mm | - | 93 W/m² | - |
| 1777998213 | 0.56° C | 99% | 1291.5 hPa | 0 mm | - | 78 W/m² | - |
| 1777997905 | 0.56° C | 99% | 1291.5 hPa | 0 mm | - | 71 W/m² | - |
| 1777997603 | 0.56° C | 99% | 1291.4 hPa | 0 mm | - | 79 W/m² | - |
| 1777997300 | 0.56° C | 99% | 1291.5 hPa | 0 mm | - | 86 W/m² | - |
| 1777996997 | 0.56° C | 99% | 1291.3 hPa | 0 mm | - | 63 W/m² | - |
| 1777996694 | 0.56° C | 99% | 1291.7 hPa | 0 mm | - | 65 W/m² | - |
| 1777996389 | 0.56° C | 99% | 1291.5 hPa | 0 mm | - | 54 W/m² | - |
| 1777996086 | 0.56° C | 99% | 1291.8 hPa | 0 mm | - | 67 W/m² | - |
| 1777995782 | 0.56° C | 99% | 1291.5 hPa | 0 mm | - | 57 W/m² | - |
| 1777995479 | 0° C | 99% | 1291.5 hPa | 0 mm | - | 61 W/m² | - |
| 1777995176 | 0.56° C | 99% | 1291.7 hPa | 0 mm | - | 64 W/m² | - |
| 1777994873 | 0.56° C | 99% | 1291.8 hPa | 0 mm | - | 61 W/m² | - |
| 1777994570 | 0.56° C | 99% | 1291.7 hPa | 0 mm | - | 57 W/m² | - |
| 1777994264 | 0.56° C | 99% | 1291.7 hPa | 0 mm | - | 47 W/m² | - |
| 1777993962 | 0.56° C | 99% | 1291.7 hPa | 0 mm | - | 45 W/m² | - |
| 1777993659 | 0.56° C | 99% | 1291.8 hPa | 0 mm | - | 47 W/m² | - |
| 1777993357 | 0.56° C | 99% | 1291.8 hPa | 0 mm | - | 41 W/m² | - |
| 1777993055 | 0.56° C | 99% | 1291.5 hPa | 0 mm | - | 39 W/m² | - |
| 1777992754 | 0.56° C | 99% | 1291.5 hPa | 0 mm | - | 32 W/m² | - |
* Rain latest hour (hover to see other rain measurements)
** Current wind speed in m/s (hover to see current wind gust speed)